University, Florida
Current Conditions -  °F | °C
As of 4:53 PM on Saturday 25 Oct 2014 (Local Time) from KHWO Reporting Station
Scattered Clouds Scattered Clouds  
Wind Chill: 80°   Ceiling: Unl
Heat Index: 81°   Visibility: 10mi
Dew Point: 62°   Wind: 16mph
Humidity: 54%   Direction: 30°NNE
Pressure: 29.9"   Gusts: NA
Location:  26.0272°N, 80.2445°W
Report Text: KHWO 252053Z 03014KT 10SM SCT060 27/17 A2990 RMK AO2 SLP124 T02670167 55004
Loading
Personal Weather Stations






























Interactive Weather Map
Tropical Storm Tracking
New forecast layout! Learn more

10-Day Weather Forecast

Advertisements
Track Severe Weather on mobile